Time;durP1;ratioP1;P1;durP2;ratioP2;P2;SDS_P1;SDS_P2;PMS_P1;PMS_P2;Temp;Humidity;BMP_temperature;BMP_pressure;BME280_temperature;BME280_humidity;BME280_pressure;Samples;Min_cycle;Max_cycle;Signal;HPM_P1;HPM_P2
2023/10/03 14:24:10;;;;;;;10.77;9.57;;;;;;;;;;5070706;28;20465;-80
2023/10/03 14:26:36;;;;;;;9.68;8.40;;;;;;;;;;5070099;28;20028;-80
2023/10/03 14:29:04;;;;;;;12.80;9.82;;;;;;;;;;5070043;28;20479;-80
2023/10/03 14:31:30;;;;;;;10.48;7.43;;;;;;;;;;5070677;28;20025;-79
2023/10/03 14:33:56;;;;;;;7.63;4.70;;;;;;;;;;5070510;28;20025;-80
2023/10/03 14:36:23;;;;;;;11.80;7.03;;;;;;;;;;5070857;28;20443;-80
2023/10/03 14:38:50;;;;;;;9.90;7.43;;;;;;;;;;5070641;28;20032;-80
2023/10/03 14:41:16;;;;;;;11.15;6.78;;;;;;;;;;5070763;28;20024;-79
2023/10/03 14:43:42;;;;;;;8.82;7.05;;;;;;;;;;5070658;28;20117;-80
2023/10/03 14:46:10;;;;;;;16.58;6.85;;;;;;;;;;5070316;28;20078;-80
2023/10/03 14:48:37;;;;;;;12.95;7.47;;;;;;;;;;5070058;28;20426;-79
2023/10/03 14:51:03;;;;;;;16.17;7.35;;;;;;;;;;5070362;28;20025;-79
2023/10/03 14:53:29;;;;;;;14.48;7.93;;;;;;;;;;5069284;28;20028;-79
2023/10/03 14:55:58;;;;;;;13.43;7.43;;;;;;;;;;5070298;28;20027;-79
2023/10/03 14:58:26;;;;;;;9.07;4.60;;;;;;;;;;5069944;28;20021;-80
2023/10/03 15:00:52;;;;;;;10.68;5.00;;;;;;;;;;5070332;28;20445;-79
2023/10/03 15:03:18;;;;;;;8.82;4.20;;;;;;;;;;5067864;28;20029;-80
2023/10/03 15:05:45;;;;;;;7.03;3.97;;;;;;;;;;5070135;28;20051;-80
2023/10/03 15:08:11;;;;;;;7.38;3.70;;;;;;;;;;5070127;28;20035;-80
2023/10/03 15:10:39;;;;;;;15.98;6.90;;;;;;;;;;5069968;28;20025;-78
2023/10/03 15:13:05;;;;;;;12.23;5.70;;;;;;;;;;5070195;28;20032;-77
2023/10/03 15:15:32;;;;;;;13.52;5.30;;;;;;;;;;5070085;28;20463;-77
2023/10/03 15:17:59;;;;;;;13.88;4.78;;;;;;;;;;5069537;28;20104;-79
2023/10/03 15:20:26;;;;;;;7.20;4.65;;;;;;;;;;5058099;28;20383;-78
2023/10/03 15:22:52;;;;;;;9.98;7.18;;;;;;;;;;5068576;28;20049;-78
2023/10/03 15:25:18;;;;;;;14.02;7.95;;;;;;;;;;5068803;28;20021;-78
2023/10/03 15:27:47;;;;;;;8.23;4.85;;;;;;;;;;5068825;28;20032;-78
2023/10/03 15:30:14;;;;;;;11.75;5.68;;;;;;;;;;5068278;28;20032;-79
2023/10/03 15:32:41;;;;;;;11.68;6.45;;;;;;;;;;5069188;28;20031;-79
2023/10/03 15:35:07;;;;;;;14.15;5.20;;;;;;;;;;5057112;28;20040;-78
2023/10/03 15:37:33;;;;;;;13.68;6.30;;;;;;;;;;5055212;28;20075;-78
2023/10/03 15:40:00;;;;;;;14.60;5.57;;;;;;;;;;5055788;28;20071;-79
2023/10/03 15:42:26;;;;;;;16.35;5.47;;;;;;;;;;5054166;28;20029;-79
2023/10/03 15:44:58;;;;;;;13.63;6.18;;;;;;;;;;5055651;28;20414;-78
2023/10/03 15:47:25;;;;;;;12.60;6.43;;;;;;;;;;5055639;28;20100;-79
2023/10/03 15:49:51;;;;;;;15.90;7.63;;;;;;;;;;5054197;28;20029;-79
2023/10/03 15:52:20;;;;;;;13.00;6.60;;;;;;;;;;5053805;28;20111;-78
2023/10/03 15:54:47;;;;;;;18.05;7.78;;;;;;;;;;5054320;28;20017;-79
2023/10/03 15:57:13;;;;;;;16.05;8.90;;;;;;;;;;5055034;28;20036;-78
2023/10/03 15:59:39;;;;;;;17.17;9.30;;;;;;;;;;5054889;28;20049;-79
2023/10/03 16:02:05;;;;;;;18.27;8.18;;;;;;;;;;5055014;28;20434;-80
2023/10/03 16:04:33;;;;;;;24.67;9.27;;;;;;;;;;5054701;28;20418;-79
2023/10/03 16:07:00;;;;;;;19.67;8.65;;;;;;;;;;5052799;28;20482;-79
2023/10/03 16:09:26;;;;;;;18.65;8.77;;;;;;;;;;5054293;28;20426;-78
2023/10/03 16:11:53;;;;;;;16.67;8.85;;;;;;;;;;5055007;28;20044;-79
2023/10/03 16:14:23;;;;;;;17.40;8.98;;;;;;;;;;5052898;28;20115;-79
2023/10/03 16:16:51;;;;;;;16.15;8.80;;;;;;;;;;5053356;28;20032;-78
2023/10/03 16:19:18;;;;;;;15.48;9.65;;;;;;;;;;5048900;28;20028;-79
2023/10/03 16:21:44;;;;;;;19.80;9.65;;;23.90;57.50;;;;;;5052646;28;20541;-79
2023/10/03 16:24:12;;;;;;;21.40;9.95;;;23.70;58.60;;;;;;5054176;28;20040;-78
2023/10/03 16:26:40;;;;;;;18.23;9.18;;;23.60;58.50;;;;;;5052848;28;20033;-78
2023/10/03 16:29:07;;;;;;;21.10;9.02;;;23.40;58.90;;;;;;5054840;28;20464;-78
2023/10/03 16:31:33;;;;;;;16.42;7.88;;;23.40;59.30;;;;;;5054190;28;20025;-78
2023/10/03 16:34:00;;;;;;;21.33;8.73;;;23.30;60.00;;;;;;5053204;28;20025;-79
2023/10/03 16:36:26;;;;;;;23.25;9.90;;;23.20;60.70;;;;;;5054296;28;20056;-79
2023/10/03 16:38:53;;;;;;;13.90;8.02;;;23.10;60.80;;;;;;5054737;28;20031;-79
2023/10/03 16:41:20;;;;;;;23.95;9.27;;;23.00;61.40;;;;;;5053910;28;20032;-79
2023/10/03 16:43:46;;;;;;;22.77;9.23;;;22.90;61.70;;;;;;5054434;28;20452;-78
2023/10/03 16:46:14;;;;;;;18.08;9.25;;;22.90;62.50;;;;;;5052801;28;20036;-80
2023/10/03 16:48:41;;;;;;;21.17;8.95;;;22.80;63.30;;;;;;5054596;28;20037;-77
2023/10/03 16:51:08;;;;;;;25.25;10.32;;;22.70;63.90;;;;;;5053192;28;20050;-78
2023/10/03 16:53:34;;;;;;;20.17;8.85;;;22.60;64.60;;;;;;5052919;28;20037;-78
2023/10/03 16:56:00;;;;;;;30.20;8.73;;;22.50;65.10;;;;;;5053844;28;20039;-77
2023/10/03 16:58:27;;;;;;;21.63;8.65;;;22.40;66.00;;;;;;5053776;28;20029;-78
2023/10/03 17:00:53;;;;;;;17.90;8.70;;;22.40;66.20;;;;;;5054232;28;20025;-78
2023/10/03 17:03:25;;;;;;;18.20;8.82;;;22.30;66.60;;;;;;5053709;28;20086;-79
2023/10/03 17:05:51;;;;;;;17.35;8.82;;;22.20;67.30;;;;;;5054104;28;20028;-79
2023/10/03 17:08:17;;;;;;;18.50;9.32;;;22.10;68.00;;;;;;5053607;28;20383;-78
2023/10/03 17:10:43;;;;;;;21.15;8.95;;;22.10;68.20;;;;;;5052766;28;20035;-79
2023/10/03 17:13:09;;;;;;;23.20;9.48;;;22.00;68.30;;;;;;5054451;28;20116;-79
2023/10/03 17:15:35;;;;;;;19.42;10.57;;;21.90;69.40;;;;;;5053120;28;20030;-78
2023/10/03 17:18:01;;;;;;;33.25;11.18;;;21.90;69.80;;;;;;5053055;28;20029;-79
2023/10/03 17:20:31;;;;;;;21.27;10.88;;;21.80;69.90;;;;;;5052354;28;20036;-79
2023/10/03 17:22:57;;;;;;;25.38;11.30;;;21.80;70.20;;;;;;5052568;28;20052;-77
2023/10/03 17:25:23;;;;;;;28.38;12.48;;;21.70;71.40;;;;;;5053617;28;20025;-78
2023/10/03 17:27:49;;;;;;;23.73;11.18;;;21.70;71.90;;;;;;5053643;28;20082;-78
2023/10/03 17:30:17;;;;;;;22.02;11.40;;;21.60;72.40;;;;;;5052923;28;20028;-78
2023/10/03 17:32:45;;;;;;;28.08;10.45;;;21.50;73.20;;;;;;5033801;28;20075;-79
2023/10/03 17:35:12;;;;;;;25.83;12.18;;;21.50;73.80;;;;;;5082600;28;20048;-78
2023/10/03 18:37:24;;;;;;;43.47;16.50;;;19.40;99.90;;;;;;5172540;27;20310;-78
2023/10/03 18:39:50;;;;;;;42.08;16.13;;;19.30;99.90;;;;;;5151670;27;20396;-77
2023/10/03 18:42:15;;;;;;;48.60;15.45;;;19.30;99.90;;;;;;5151856;27;20457;-79
2023/10/03 18:44:41;;;;;;;40.47;15.43;;;19.30;99.90;;;;;;5152009;27;20023;-79
2023/10/03 18:47:07;;;;;;;40.83;15.25;;;19.20;99.90;;;;;;5151219;27;20041;-80
2023/10/03 18:49:33;;;;;;;35.05;14.30;;;19.30;99.90;;;;;;5151676;27;20046;-77
2023/10/03 18:51:59;;;;;;;37.92;15.15;;;19.20;99.90;;;;;;5151904;27;20031;-78
2023/10/03 18:54:24;;;;;;;35.00;15.15;;;19.30;99.90;;;;;;5151663;27;20030;-78
2023/10/03 18:56:50;;;;;;;32.38;13.55;;;19.30;99.90;;;;;;5153335;27;20034;-79
2023/10/03 18:59:17;;;;;;;31.17;13.05;;;19.30;99.90;;;;;;5134618;27;20038;-78
2023/10/03 19:01:43;;;;;;;34.45;14.05;;;19.30;99.90;;;;;;5144803;27;20034;-77
2023/10/03 19:04:09;;;;;;;36.70;14.05;;;19.30;99.90;;;;;;5142646;27;20023;-79
2023/10/03 19:06:36;;;;;;;30.42;12.35;;;19.20;99.90;;;;;;5139740;27;20119;-78
2023/10/03 19:09:03;;;;;;;32.88;13.02;;;19.20;99.90;;;;;;5146008;27;20034;-78
2023/10/03 19:11:30;;;;;;;31.05;12.50;;;19.20;99.90;;;;;;5165240;27;20031;-78
2023/10/03 19:13:56;;;;;;;32.75;12.70;;;19.20;99.90;;;;;;5130924;27;20019;-78
2023/10/03 19:16:24;;;;;;;24.85;11.57;;;19.20;99.90;;;;;;5151164;27;20035;-77
2023/10/03 19:18:49;;;;;;;33.53;13.15;;;19.20;99.90;;;;;;5141203;27;20023;-78
2023/10/03 19:21:15;;;;;;;26.02;11.75;;;19.20;99.90;;;;;;5132377;27;20028;-78
2023/10/03 19:23:44;;;;;;;23.80;11.13;;;19.10;99.90;;;;;;5140369;27;20027;-78
2023/10/03 19:26:11;;;;;;;26.80;10.52;;;19.10;99.90;;;;;;5142224;27;20157;-80
2023/10/03 19:28:39;;;;;;;31.13;11.85;;;19.10;99.90;;;;;;5149555;27;20109;-78
2023/10/03 19:31:09;;;;;;;25.77;12.00;;;19.10;99.90;;;;;;5123064;27;20031;-78
2023/10/03 19:33:36;;;;;;;26.75;11.85;;;19.10;99.90;;;;;;5126481;27;20031;-77
2023/10/03 19:36:09;;;;;;;24.58;12.27;;;19.00;99.90;;;;;;5149504;27;20049;-78
2023/10/03 19:38:34;;;;;;;25.10;11.43;;;19.00;99.90;;;;;;5143181;27;20077;-78
2023/10/03 19:41:00;;;;;;;29.42;11.43;;;19.00;99.90;;;;;;5136668;27;20444;-78
2023/10/03 19:43:26;;;;;;;29.33;11.48;;;19.00;99.90;;;;;;5142222;27;20033;-77
2023/10/03 19:45:53;;;;;;;27.75;10.27;;;19.00;99.90;;;;;;5140024;27;20059;-78
2023/10/03 19:48:21;;;;;;;27.70;11.95;;;19.00;99.90;;;;;;5139051;27;20048;-77
2023/10/03 19:50:47;;;;;;;22.58;11.20;;;18.90;99.90;;;;;;5118651;27;20023;-78
2023/10/03 19:53:13;;;;;;;28.27;11.40;;;18.90;99.90;;;;;;5118519;27;20114;-78
2023/10/03 19:55:39;;;;;;;27.25;10.85;;;18.90;99.90;;;;;;5117516;27;20122;-78
2023/10/03 19:58:05;;;;;;;30.80;11.35;;;18.90;99.90;;;;;;5147795;27;20027;-78
2023/10/03 20:00:31;;;;;;;26.60;10.52;;;18.90;99.90;;;;;;5108179;27;20043;-78
2023/10/03 20:02:57;;;;;;;27.25;12.02;;;18.80;99.90;;;;;;5128498;27;20035;-79
2023/10/03 20:05:24;;;;;;;25.75;11.13;;;18.80;99.90;;;;;;5136216;27;20470;-78
2023/10/03 20:07:52;;;;;;;21.88;9.80;;;18.80;99.90;;;;;;5136667;27;20064;-77
2023/10/03 20:10:19;;;;;;;24.40;10.48;;;18.80;99.90;;;;;;5136153;27;20027;-79
2023/10/03 20:12:46;;;;;;;25.35;9.98;;;18.80;99.90;;;;;;5136669;27;20049;-78
2023/10/03 20:15:15;;;;;;;26.73;10.38;;;18.80;99.90;;;;;;5136283;27;20031;-78
2023/10/03 20:17:41;;;;;;;26.27;9.90;;;18.80;99.90;;;;;;5135832;27;20049;-77
2023/10/03 20:20:12;;;;;;;23.70;10.88;;;18.70;99.90;;;;;;5136775;27;20042;-78
2023/10/03 20:22:41;;;;;;;23.73;11.13;;;18.70;99.90;;;;;;5136221;27;20027;-78
2023/10/03 20:25:08;;;;;;;25.83;11.00;;;18.70;99.90;;;;;;5128850;27;20031;-77
2023/10/03 20:27:34;;;;;;;28.85;11.02;;;18.70;99.90;;;;;;5134781;27;20027;-78
2023/10/03 20:30:00;;;;;;;30.42;9.90;;;18.60;99.90;;;;;;5120461;27;20023;-79
2023/10/03 20:32:26;;;;;;;30.77;10.57;;;18.60;99.90;;;;;;5134350;27;20047;-78
2023/10/03 20:34:53;;;;;;;26.90;10.82;;;18.60;99.90;;;;;;5116872;27;20481;-79
2023/10/03 20:37:19;;;;;;;24.83;10.35;;;18.60;99.90;;;;;;5119272;27;20047;-78
2023/10/03 20:39:45;;;;;;;22.27;10.63;;;18.50;99.90;;;;;;5121548;27;20023;-78
2023/10/03 20:42:11;;;;;;;21.60;10.13;;;18.50;99.90;;;;;;5129954;27;20115;-79
2023/10/03 20:44:37;;;;;;;21.92;10.73;;;18.50;99.90;;;;;;5134186;27;20035;-78
2023/10/03 20:47:04;;;;;;;21.17;10.48;;;18.50;99.90;;;;;;5121082;27;20054;-78
2023/10/03 20:49:30;;;;;;;27.98;11.27;;;18.40;99.90;;;;;;5135617;27;20024;-77
2023/10/03 20:51:56;;;;;;;22.65;10.60;;;18.40;99.90;;;;;;5135859;27;20023;-76
2023/10/03 20:54:23;;;;;;;26.23;11.00;;;18.40;99.90;;;;;;5116970;27;20038;-77
2023/10/03 20:56:49;;;;;;;26.30;9.63;;;18.40;99.90;;;;;;5136016;27;20091;-78
2023/10/03 20:59:15;;;;;;;20.58;9.75;;;18.30;99.90;;;;;;5134093;27;20027;-78
2023/10/03 21:01:42;;;;;;;25.20;9.75;;;18.30;99.90;;;;;;5135414;27;20084;-76
2023/10/03 21:04:08;;;;;;;21.42;10.20;;;18.30;99.90;;;;;;5106731;27;20031;-76
2023/10/03 21:06:34;;;;;;;29.50;10.02;;;18.30;99.90;;;;;;5145221;27;20027;-77
2023/10/03 21:09:00;;;;;;;25.35;10.70;;;18.20;99.90;;;;;;5121110;27;20098;-78
2023/10/03 21:11:26;;;;;;;21.50;9.73;;;18.20;99.90;;;;;;5117907;27;20107;-79
2023/10/03 21:13:53;;;;;;;26.05;9.65;;;18.20;99.90;;;;;;5130291;27;20031;-78
2023/10/03 21:16:19;;;;;;;25.48;10.07;;;18.20;99.90;;;;;;5131234;27;20113;-78
2023/10/03 21:18:45;;;;;;;21.70;9.77;;;18.10;99.90;;;;;;5096526;28;20059;-78
2023/10/03 21:21:13;;;;;;;28.50;10.68;;;18.10;99.90;;;;;;5106451;27;20069;-79
2023/10/03 21:23:42;;;;;;;21.70;9.70;;;18.10;99.90;;;;;;5135328;27;20027;-79
2023/10/03 21:26:09;;;;;;;24.88;9.82;;;18.00;99.90;;;;;;5112070;28;20540;-78
2023/10/03 21:28:35;;;;;;;23.20;9.80;;;18.00;99.90;;;;;;5115648;27;20121;-78
2023/10/03 21:31:01;;;;;;;28.17;11.13;;;17.90;99.90;;;;;;5134934;27;20027;-78
2023/10/03 21:33:27;;;;;;;27.58;10.90;;;17.80;99.90;;;;;;5134614;27;20023;-77
2023/10/03 21:35:52;;;;;;;26.20;10.13;;;17.80;99.90;;;;;;5134584;27;20046;-77
2023/10/03 21:38:18;;;;;;;27.13;10.25;;;17.70;99.90;;;;;;5134404;27;20037;-78
2023/10/03 21:40:44;;;;;;;22.98;10.63;;;17.60;99.90;;;;;;5133707;27;20030;-79
2023/10/03 21:43:11;;;;;;;24.17;10.73;;;17.60;99.90;;;;;;5134669;27;20031;-78
2023/10/03 21:45:40;;;;;;;28.20;11.20;;;17.60;99.90;;;;;;5115918;27;20578;-78
2023/10/03 21:48:08;;;;;;;32.83;11.95;;;17.50;99.90;;;;;;5116571;27;20126;-77
2023/10/03 21:50:35;;;;;;;32.30;14.13;;;17.50;99.90;;;;;;5134472;27;20027;-79
2023/10/03 21:53:01;;;;;;;31.40;13.40;;;17.40;99.90;;;;;;5133738;27;20470;-77
2023/10/03 21:55:27;;;;;;;26.75;12.00;;;17.40;99.90;;;;;;5137130;27;20023;-77
2023/10/03 21:57:53;;;;;;;24.77;12.82;;;17.30;99.90;;;;;;5135277;27;20034;-77
2023/10/03 22:00:34;;;;;;;24.88;12.15;;;17.30;99.90;;;;;;5116780;27;20031;-78
2023/10/03 22:03:03;;;;;;;26.45;13.23;;;17.20;99.90;;;;;;5127594;27;20015;-79
2023/10/03 22:05:29;;;;;;;28.85;14.05;;;17.20;99.90;;;;;;5120708;27;20066;-77
2023/10/03 22:07:57;;;;;;;30.42;13.05;;;17.10;99.90;;;;;;5134646;27;20546;-78
2023/10/03 22:10:27;;;;;;;31.48;12.35;;;17.00;99.90;;;;;;5134485;27;20076;-77
2023/10/03 22:12:53;;;;;;;29.85;14.95;;;17.00;99.90;;;;;;5134806;27;20394;-78
2023/10/03 22:15:19;;;;;;;27.63;12.63;;;17.00;99.90;;;;;;5116359;27;20027;-77
2023/10/03 22:17:45;;;;;;;22.95;13.32;;;16.90;99.90;;;;;;5129812;27;20030;-77
2023/10/03 22:20:11;;;;;;;32.70;14.40;;;16.90;99.90;;;;;;5130228;27;20106;-77
2023/10/03 22:22:38;;;;;;;29.20;12.55;;;16.90;99.90;;;;;;5124722;27;20031;-77
2023/10/03 22:25:05;;;;;;;26.35;12.43;;;16.90;99.90;;;;;;5127832;27;20191;-77
2023/10/03 22:27:31;;;;;;;28.55;13.20;;;16.80;99.90;;;;;;5117396;27;20030;-77
2023/10/03 22:29:57;;;;;;;30.13;14.70;;;16.80;99.90;;;;;;5132123;27;20023;-77
2023/10/03 22:32:24;;;;;;;23.38;14.50;;;16.80;99.90;;;;;;5133286;27;20080;-77
2023/10/03 22:34:52;;;;;;;27.05;13.98;;;16.70;99.90;;;;;;5121220;27;20031;-77
2023/10/03 22:37:18;;;;;;;28.25;14.18;;;16.70;99.90;;;;;;5114427;28;20126;-77
2023/10/03 22:39:44;;;;;;;25.10;13.35;;;16.70;99.90;;;;;;5109734;28;20124;-76
2023/10/03 22:42:10;;;;;;;26.83;13.93;;;16.60;99.90;;;;;;5115254;27;20019;-76
2023/10/03 22:44:36;;;;;;;29.10;14.63;;;16.60;99.90;;;;;;5118910;27;20518;-78
2023/10/03 22:47:01;;;;;;;30.13;14.10;;;16.60;99.90;;;;;;5131890;27;20027;-77
2023/10/03 22:49:27;;;;;;;28.50;13.98;;;16.60;99.90;;;;;;5115850;28;20027;-76
2023/10/03 22:51:53;;;;;;;26.48;14.55;;;16.50;99.90;;;;;;5132249;27;20027;-77
2023/10/03 22:54:19;;;;;;;27.42;13.75;;;16.50;99.90;;;;;;5118139;28;20102;-77
2023/10/03 22:56:46;;;;;;;26.48;14.25;;;16.50;99.90;;;;;;5130679;27;20084;-78
2023/10/03 22:59:12;;;;;;;37.35;14.85;;;16.40;99.90;;;;;;5127849;27;20110;-77
2023/10/03 23:01:38;;;;;;;32.63;16.38;;;16.40;99.90;;;;;;5114057;28;20110;-77
2023/10/03 23:04:04;;;;;;;32.97;13.80;;;16.40;99.90;;;;;;5133399;27;20462;-77
2023/10/03 23:06:30;;;;;;;29.65;13.65;;;16.30;99.90;;;;;;5122740;27;20024;-77
2023/10/03 23:08:56;;;;;;;32.03;16.17;;;16.30;99.90;;;;;;5126786;28;20023;-77
2023/10/03 23:11:24;;;;;;;31.08;15.68;;;16.10;99.90;;;;;;5123379;27;20059;-77
2023/10/03 23:13:51;;;;;;;33.03;15.18;;;16.10;99.90;;;;;;5128558;27;20019;-76
2023/10/03 23:16:17;;;;;;;31.42;14.93;;;16.10;99.90;;;;;;5121009;27;20040;-78
2023/10/03 23:18:43;;;;;;;31.92;15.57;;;16.20;99.90;;;;;;5115748;28;20023;-77
2023/10/03 23:21:09;;;;;;;31.20;15.35;;;16.10;99.90;;;;;;5133226;27;20023;-78
2023/10/03 23:23:35;;;;;;;41.38;18.15;;;16.10;99.90;;;;;;5118676;27;20023;-77
2023/10/03 23:26:03;;;;;;;34.67;16.73;;;16.10;99.90;;;;;;5136991;27;20492;-76
2023/10/03 23:28:30;;;;;;;36.03;16.08;;;16.10;99.90;;;;;;5131590;27;20098;-78
2023/10/03 23:30:56;;;;;;;28.45;14.70;;;16.00;99.90;;;;;;5137063;27;20031;-76
2023/10/03 23:33:22;;;;;;;31.42;15.77;;;16.00;99.90;;;;;;5135891;27;20039;-77
2023/10/03 23:35:48;;;;;;;31.10;14.43;;;16.00;99.90;;;;;;5125354;27;20044;-77
2023/10/03 23:38:14;;;;;;;27.15;14.02;;;16.00;99.90;;;;;;5120252;27;20031;-77
2023/10/03 23:40:41;;;;;;;26.88;13.13;;;16.00;99.90;;;;;;5124169;27;20103;-78
2023/10/03 23:43:06;;;;;;;25.42;13.50;;;16.00;99.90;;;;;;5122438;27;20059;-77
2023/10/03 23:45:35;;;;;;;29.23;12.82;;;16.00;99.90;;;;;;5127409;27;20066;-78
2023/10/03 23:48:02;;;;;;;36.63;13.35;;;16.10;99.90;;;;;;5127974;27;20022;-76
2023/10/03 23:50:32;;;;;;;27.02;11.65;;;16.00;99.90;;;;;;5127592;27;20027;-77
2023/10/03 23:52:59;;;;;;;27.23;13.10;;;16.00;99.90;;;;;;5131294;27;20023;-77
2023/10/03 23:55:25;;;;;;;32.10;12.82;;;16.00;99.90;;;;;;5125338;27;20096;-77
2023/10/03 23:57:52;;;;;;;29.80;12.57;;;16.00;99.90;;;;;;5122006;27;20030;-77
